Time;durP1;ratioP1;P1;durP2;ratioP2;P2;SDS_P1;SDS_P2;PMS_P1;PMS_P2;Temp;Humidity;BMP_temperature;BMP_pressure;BME280_temperature;BME280_humidity;BME280_pressure;Samples;Min_cycle;Max_cycle;Signal;HPM_P1;HPM_P2
2021/06/23 00:01:07;;;;;;;7.00;3.50;;;;;;;15.54;66.68;100996.81;5105241;28;20272;-72
2021/06/23 00:03:33;;;;;;;4.37;3.40;;;;;;;15.49;67.03;100989.03;5105014;28;20265;-73
2021/06/23 00:06:00;;;;;;;4.13;3.60;;;;;;;15.47;66.76;100988.22;5104875;28;20227;-72
2021/06/23 00:08:26;;;;;;;6.77;3.97;;;;;;;15.46;66.64;100993.53;5105356;28;20260;-72
2021/06/23 00:10:54;;;;;;;4.60;3.93;;;;;;;15.47;67.04;100987.38;5105015;28;20203;-73
2021/06/23 00:13:21;;;;;;;6.53;4.03;;;;;;;15.44;66.86;100988.34;5104373;28;20246;-72
2021/06/23 00:15:49;;;;;;;5.17;4.27;;;;;;;15.40;66.66;100988.47;5104422;28;20230;-72
2021/06/23 00:18:15;;;;;;;4.17;3.63;;;;;;;15.37;67.15;100963.13;5104613;28;20211;-72
2021/06/23 00:20:42;;;;;;;6.43;4.43;;;;;;;15.32;66.61;100993.97;5104829;28;20256;-73
2021/06/23 00:23:08;;;;;;;5.63;4.07;;;;;;;15.22;67.06;100979.34;5104195;28;20425;-72
2021/06/23 00:25:34;;;;;;;7.53;4.20;;;;;;;15.19;66.64;100984.72;5104496;28;20227;-72
2021/06/23 00:28:02;;;;;;;6.17;3.63;;;;;;;15.09;67.14;100986.75;5104097;28;20358;-72
2021/06/23 00:30:29;;;;;;;6.83;4.27;;;;;;;15.07;67.94;100954.38;5104639;28;20676;-73
2021/06/23 00:33:02;;;;;;;6.63;4.40;;;;;;;15.09;68.87;100928.91;5104142;28;20229;-72
2021/06/23 00:35:29;;;;;;;6.13;4.07;;;;;;;15.07;68.71;100925.47;5104400;28;20234;-73
2021/06/23 00:37:55;;;;;;;5.93;4.27;;;;;;;15.12;68.18;100949.81;5104366;28;20661;-72
2021/06/23 00:40:21;;;;;;;6.67;4.43;;;;;;;15.10;67.23;100996.34;5103490;28;20674;-73
2021/06/23 00:42:48;;;;;;;7.17;3.83;;;;;;;15.08;67.55;101003.41;5103609;28;20381;-73
2021/06/23 00:45:16;;;;;;;7.40;3.93;;;;;;;15.13;66.79;101033.09;5103919;28;20256;-73
2021/06/23 00:47:46;;;;;;;5.70;4.20;;;;;;;15.13;67.90;101009.41;5104337;28;20210;-73
2021/06/23 00:50:15;;;;;;;6.13;4.13;;;;;;;15.12;67.17;101033.97;5104208;28;20207;-73
2021/06/23 00:52:42;;;;;;;6.20;4.13;;;;;;;15.07;67.52;101004.34;5103748;28;20227;-72
2021/06/23 00:55:10;;;;;;;5.97;4.23;;;;;;;15.04;67.52;100997.41;5104078;28;20223;-73
2021/06/23 00:57:39;;;;;;;5.07;4.30;;;;;;;15.03;67.19;101000.94;5103648;28;20249;-73
2021/06/23 01:00:07;;;;;;;6.27;4.27;;;;;;;15.01;67.40;101023.78;5103985;28;20192;-73
2021/06/23 01:02:35;;;;;;;11.43;4.80;;;;;;;15.07;66.76;101046.41;5103459;27;20206;-72
2021/06/23 01:05:01;;;;;;;7.27;4.20;;;;;;;15.07;66.80;101056.91;5103537;28;20249;-72
2021/06/23 01:07:28;;;;;;;11.07;4.43;;;;;;;15.07;66.42;101072.69;5104047;28;20215;-72
2021/06/23 01:09:56;;;;;;;8.50;4.63;;;;;;;15.04;66.14;101088.53;5103463;28;20195;-72
2021/06/23 01:12:44;;;;;;;7.00;4.27;;;;;;;15.06;65.79;101105.13;5103333;28;20242;-72
2021/06/23 01:15:13;;;;;;;5.57;3.63;;;;;;;15.02;65.26;101114.88;5103357;28;20275;-72
2021/06/23 01:17:41;;;;;;;8.77;4.43;;;;;;;15.01;65.46;101105.28;5103458;28;20222;-72
2021/06/23 01:20:09;;;;;;;4.70;4.00;;;;;;;14.97;66.74;101052.81;5103757;28;20316;-72
2021/06/23 01:22:40;;;;;;;7.37;4.90;;;;;;;14.96;66.72;101057.19;5103109;28;20217;-72
2021/06/23 01:25:08;;;;;;;7.60;4.47;;;;;;;14.95;67.11;101039.72;5103626;28;20220;-72
2021/06/23 01:27:35;;;;;;;6.43;4.67;;;;;;;14.98;66.60;101054.53;5103622;28;20199;-73
2021/06/23 01:30:02;;;;;;;7.27;4.73;;;;;;;15.01;66.66;101057.09;5103288;28;20850;-72
2021/06/23 01:32:28;;;;;;;5.87;4.77;;;;;;;15.01;67.09;101036.06;5102729;27;20574;-72
2021/06/23 01:34:55;;;;;;;6.33;4.73;;;;;;;15.00;66.92;101048.31;5103054;28;20746;-72
2021/06/23 01:37:21;;;;;;;11.30;5.13;;;;;;;14.95;67.11;101052.88;5102995;28;20736;-72
2021/06/23 01:39:49;;;;;;;7.50;4.43;;;;;;;14.95;67.46;101031.84;5103207;28;20531;-72
2021/06/23 01:42:15;;;;;;;6.10;4.77;;;;;;;14.91;68.45;100988.13;5103262;28;20199;-72
2021/06/23 01:44:41;;;;;;;6.23;4.67;;;;;;;14.89;68.61;100996.06;5103107;28;20209;-73
2021/06/23 01:47:08;;;;;;;7.83;4.43;;;;;;;14.94;67.34;101035.34;5102896;28;20260;-72
2021/06/23 01:49:34;;;;;;;5.77;4.70;;;;;;;14.96;67.09;101049.31;5102995;28;20237;-73
2021/06/23 01:52:01;;;;;;;8.57;4.37;;;;;;;15.03;67.30;101042.13;5102576;28;20206;-72
2021/06/23 01:54:27;;;;;;;6.60;4.60;;;;;;;15.01;67.06;101047.44;5102708;28;20689;-72
2021/06/23 01:56:55;;;;;;;7.83;5.23;;;;;;;14.90;67.43;101025.81;5103052;28;20274;-72
2021/06/23 01:59:22;;;;;;;9.70;4.70;;;;;;;14.94;67.25;101040.59;5103545;28;20204;-72
2021/06/23 02:02:01;;;;;;;5.87;4.67;;;;;;;14.94;67.45;101032.72;5103046;28;20737;-72
2021/06/23 02:04:42;;;;;;;6.80;4.43;;;;;;;14.93;67.38;101038.91;5102729;28;20758;-72
2021/06/23 02:07:40;;;;;;;5.43;4.80;;;;;;;14.93;66.70;101040.69;5106236;28;20229;-73
2021/06/23 02:10:25;;;;;;;5.53;4.73;;;;;;;14.89;67.44;101016.22;5105624;28;20215;-73
2021/06/23 02:13:34;;;;;;;4.57;4.17;;;;;;;14.80;67.90;100991.03;5103402;28;20231;-73
2021/06/23 02:16:08;;;;;;;5.97;4.50;;;;;;;14.84;67.51;101004.97;5103321;28;20280;-72
2021/06/23 02:18:36;;;;;;;5.77;4.67;;;;;;;14.82;68.21;100988.38;5102793;28;20229;-72
2021/06/23 02:21:05;;;;;;;7.30;4.17;;;;;;;14.81;68.08;101007.69;5102730;28;20202;-72
2021/06/23 02:23:34;;;;;;;5.73;4.13;;;;;;;14.82;67.93;101015.50;5102637;28;20203;-72
2021/06/23 02:26:00;;;;;;;7.23;5.13;;;;;;;14.84;67.25;101026.84;5102637;28;20230;-72
2021/06/23 02:28:27;;;;;;;7.73;4.30;;;;;;;14.87;66.41;101057.47;5102506;28;20260;-72
2021/06/23 02:30:53;;;;;;;4.23;3.90;;;;;;;14.89;66.78;101047.78;5102750;28;20207;-72
2021/06/23 02:33:21;;;;;;;7.87;3.77;;;;;;;14.84;65.99;101081.19;5102095;28;20717;-72
2021/06/23 02:35:49;;;;;;;5.03;3.80;;;;;;;14.82;67.56;101047.06;5102816;28;20237;-72
2021/06/23 02:38:16;;;;;;;11.43;3.97;;;;;;;14.74;67.22;101035.88;5102620;28;20207;-73
2021/06/23 02:40:43;;;;;;;5.17;4.07;;;;;;;14.84;66.88;101045.25;5102662;28;20751;-73
2021/06/23 02:43:09;;;;;;;5.40;3.83;;;;;;;14.80;68.17;101009.44;5102349;28;20200;-72
2021/06/23 02:45:36;;;;;;;5.63;4.33;;;;;;;14.72;68.25;100994.78;5102199;28;20223;-72
2021/06/23 02:48:03;;;;;;;6.03;4.30;;;;;;;14.72;69.33;100956.22;5102342;28;20207;-72
2021/06/23 02:50:36;;;;;;;10.23;4.70;;;;;;;14.72;68.47;100968.53;5102876;28;20265;-72
2021/06/23 02:53:04;;;;;;;8.33;4.37;;;;;;;14.74;68.42;100982.47;5101868;28;20225;-73
2021/06/23 02:55:31;;;;;;;9.93;4.67;;;;;;;14.68;67.87;100979.09;5102255;28;20724;-72
2021/06/23 02:57:59;;;;;;;6.47;4.37;;;;;;;14.62;67.69;100984.53;5102464;28;20211;-73
2021/06/23 03:00:26;;;;;;;5.07;4.53;;;;;;;14.35;69.09;100949.34;5102153;28;20210;-73
2021/06/23 03:02:52;;;;;;;6.63;5.40;;;;;;;13.96;70.96;100875.97;5103341;28;20300;-72
2021/06/23 03:05:18;;;;;;;7.43;4.50;;;;;;;14.06;71.11;100863.44;5106616;27;20259;-72
2021/06/23 03:07:46;;;;;;;5.70;4.50;;;;;;;14.15;72.14;100826.44;5106172;28;20210;-72
2021/06/23 03:10:14;;;;;;;6.53;4.93;;;;;;;14.24;72.74;100814.84;5105953;28;20204;-72
2021/06/23 03:12:40;;;;;;;7.33;4.60;;;;;;;14.32;72.08;100835.63;5105547;28;20202;-72
2021/06/23 03:15:08;;;;;;;5.47;4.13;;;;;;;14.41;71.90;100866.88;5105944;28;20221;-73
2021/06/23 03:17:35;;;;;;;7.57;5.07;;;;;;;14.34;71.85;100887.19;5105998;28;20284;-72
2021/06/23 03:20:05;;;;;;;10.17;5.03;;;;;;;14.19;72.31;100851.72;5105965;28;20276;-72
2021/06/23 03:22:31;;;;;;;6.30;5.70;;;;;;;14.22;72.93;100833.25;5105597;28;20626;-72
2021/06/23 03:24:59;;;;;;;7.63;5.67;;;;;;;14.33;72.54;100835.59;5105438;28;20730;-73
2021/06/23 03:27:26;;;;;;;6.00;5.50;;;;;;;14.26;73.64;100829.63;5106085;27;20207;-73
2021/06/23 03:29:52;;;;;;;7.10;6.13;;;;;;;14.27;73.93;100807.72;5105504;28;20304;-73
2021/06/23 03:32:18;;;;;;;6.57;5.93;;;;;;;14.01;74.88;100771.72;5105493;28;20209;-72
2021/06/23 03:34:44;;;;;;;6.47;6.00;;;;;;;13.93;75.77;100733.44;5105633;28;20704;-73
2021/06/23 03:37:12;;;;;;;8.43;6.93;;;;;;;14.00;75.19;100754.22;5105374;28;20765;-72
2021/06/23 03:39:39;;;;;;;8.63;6.07;;;;;;;14.08;75.20;100760.13;5105281;28;20787;-72
2021/06/23 03:42:08;;;;;;;8.07;5.83;;;;;;;14.26;74.84;100765.75;5105253;28;20204;-72
2021/06/23 03:44:34;;;;;;;6.90;5.20;;;;;;;13.90;75.89;100765.91;5105448;28;20272;-73
2021/06/23 03:47:02;;;;;;;6.83;6.30;;;;;;;13.96;75.71;100746.50;5105121;28;20253;-72
2021/06/23 03:49:28;;;;;;;10.60;6.20;;;;;;;13.77;76.35;100722.50;5104997;27;20613;-72
2021/06/23 03:51:55;;;;;;;6.63;6.03;;;;;;;13.75;76.91;100725.19;5105370;28;20206;-72
2021/06/23 03:54:21;;;;;;;7.40;6.20;;;;;;;13.85;75.82;100752.88;5105072;28;20263;-73
2021/06/23 03:56:48;;;;;;;7.00;6.00;;;;;;;14.04;75.55;100779.50;5105031;28;20295;-73
2021/06/23 03:59:16;;;;;;;8.33;5.87;;;;;;;14.22;75.08;100798.25;5106457;28;20245;-73
2021/06/23 04:01:42;;;;;;;6.13;5.57;;;;;;;14.33;74.72;100818.94;5106532;28;20256;-73
2021/06/23 04:04:08;;;;;;;7.47;5.20;;;;;;;14.41;74.05;100848.47;5106230;28;20211;-72
2021/06/23 04:06:35;;;;;;;8.33;6.00;;;;;;;14.41;74.87;100820.47;5105973;28;20234;-73
2021/06/23 04:09:01;;;;;;;6.97;5.67;;;;;;;14.51;74.60;100828.94;5105010;28;20750;-72
2021/06/23 04:11:27;;;;;;;6.13;5.57;;;;;;;14.59;74.69;100831.34;5104779;28;20684;-73
2021/06/23 04:13:54;;;;;;;9.43;6.50;;;;;;;14.56;73.33;100887.50;5104866;28;20222;-73
2021/06/23 04:16:21;;;;;;;8.20;6.13;;;;;;;14.57;72.69;100938.25;5104888;28;20227;-73
2021/06/23 04:18:48;;;;;;;7.23;6.30;;;;;;;14.52;72.24;100954.13;5104489;28;20259;-72
2021/06/23 04:21:14;;;;;;;9.23;6.30;;;;;;;14.56;71.98;100966.31;5104978;28;20206;-72
2021/06/23 04:23:41;;;;;;;6.67;6.07;;;;;;;14.61;73.36;100890.00;5104327;28;20688;-73
2021/06/23 04:26:08;;;;;;;5.83;5.33;;;;;;;14.64;72.73;100896.00;5104667;28;20237;-73
2021/06/23 04:28:34;;;;;;;7.00;6.20;;;;;;;14.73;71.59;100954.47;5104550;28;20234;-73
2021/06/23 04:31:00;;;;;;;7.27;6.07;;;;;;;14.75;72.80;100924.63;5104734;28;20689;-73
2021/06/23 04:33:28;;;;;;;6.33;5.40;;;;;;;14.69;72.73;100920.41;5104004;28;20219;-73
2021/06/23 04:35:55;;;;;;;8.90;6.17;;;;;;;14.66;73.06;100898.59;5104280;28;20366;-73
2021/06/23 04:38:22;;;;;;;6.43;5.83;;;;;;;14.74;72.52;100888.72;5104207;28;20588;-72
2021/06/23 04:40:48;;;;;;;7.80;5.53;;;;;;;14.80;72.47;100922.72;5104457;28;20649;-72
2021/06/23 04:43:14;;;;;;;7.27;6.13;;;;;;;14.83;72.71;100914.75;5103806;28;20346;-73
2021/06/23 04:45:41;;;;;;;6.93;5.87;;;;;;;14.88;72.63;100912.88;5104206;28;20223;-73
2021/06/23 04:48:08;;;;;;;5.93;5.40;;;;;;;14.92;73.02;100907.50;5104321;28;20207;-73
2021/06/23 04:50:36;;;;;;;6.77;5.43;;;;;;;14.88;72.79;100909.34;5104096;28;20373;-73
2021/06/23 04:53:03;;;;;;;7.07;5.63;;;;;;;14.81;72.25;100931.47;5103243;28;20619;-72
2021/06/23 04:55:29;;;;;;;8.37;6.60;;;;;;;14.54;73.86;100870.88;5104178;27;20256;-73
2021/06/23 04:57:56;;;;;;;7.00;6.40;;;;;;;14.44;74.56;100849.25;5103576;28;20740;-72
2021/06/23 05:00:22;;;;;;;10.43;6.60;;;;;;;14.50;74.70;100824.59;5103988;28;20920;-73
2021/06/23 05:02:48;;;;;;;7.60;5.93;;;;;;;14.58;75.18;100813.88;5103577;28;20268;-73
2021/06/23 05:05:15;;;;;;;6.13;5.50;;;;;;;14.58;75.27;100824.41;5103842;28;20219;-72
2021/06/23 05:07:42;;;;;;;6.97;5.87;;;;;;;14.44;75.06;100849.25;5103484;28;20290;-73
2021/06/23 05:10:10;;;;;;;6.73;6.13;;;;;;;14.49;74.75;100839.50;5104119;28;20206;-73
2021/06/23 05:12:36;;;;;;;6.43;5.47;;;;;;;14.59;74.19;100874.28;5103576;28;20260;-72
2021/06/23 05:15:03;;;;;;;8.10;5.63;;;;;;;14.59;73.67;100904.91;5103493;28;20516;-73
2021/06/23 05:17:29;;;;;;;10.10;6.43;;;;;;;14.72;73.42;100908.06;5103666;27;20259;-72
2021/06/23 05:19:56;;;;;;;9.70;5.80;;;;;;;14.82;73.39;100914.78;5103625;28;20258;-72
2021/06/23 05:22:23;;;;;;;7.07;5.40;;;;;;;14.80;73.26;100913.97;5102925;28;20210;-72
2021/06/23 05:24:50;;;;;;;9.73;5.50;;;;;;;14.84;73.37;100908.56;5102980;28;20877;-72
2021/06/23 05:27:17;;;;;;;5.50;4.90;;;;;;;14.92;73.75;100895.22;5102980;28;20691;-72
2021/06/23 05:29:43;;;;;;;6.80;5.10;;;;;;;15.00;71.78;100968.59;5103233;28;20210;-72
2021/06/23 05:32:10;;;;;;;8.57;5.30;;;;;;;14.99;72.27;100980.88;5102865;28;20926;-72
2021/06/23 05:34:37;;;;;;;8.47;5.40;;;;;;;15.04;72.07;100962.34;5103077;28;20272;-73
2021/06/23 05:37:03;;;;;;;5.67;4.53;;;;;;;15.04;70.69;101023.69;5103119;28;20283;-73
2021/06/23 05:39:30;;;;;;;11.20;5.03;;;;;;;15.05;69.49;101071.88;5103253;28;20206;-72
2021/06/23 05:41:58;;;;;;;5.63;4.20;;;;;;;15.08;69.48;101077.91;5102939;28;20200;-73
2021/06/23 05:44:24;;;;;;;10.50;4.57;;;;;;;15.09;69.19;101086.66;5103233;28;20283;-73
2021/06/23 05:46:50;;;;;;;5.40;3.83;;;;;;;15.13;69.34;101082.19;5102935;28;20228;-72
2021/06/23 05:49:17;;;;;;;5.20;3.57;;;;;;;15.18;68.69;101106.56;5103058;28;20203;-73
2021/06/23 05:51:43;;;;;;;6.77;3.60;;;;;;;15.17;68.79;101089.09;5103160;28;20261;-72
2021/06/23 05:54:09;;;;;;;5.13;3.27;;;;;;;15.28;67.66;101142.25;5102797;28;20604;-72
2021/06/23 05:56:36;;;;;;;4.70;3.50;;;;;;;15.29;67.12;101159.75;5102464;28;20800;-72
2021/06/23 05:59:04;;;;;;;5.53;3.40;;;;;;;15.32;67.16;101167.59;5102916;28;20557;-72
2021/06/23 06:01:30;;;;;;;4.87;3.47;;;;;;;15.42;66.89;101179.56;5102813;28;20208;-74
2021/06/23 06:03:57;;;;;;;10.83;3.77;;;;;;;15.41;66.91;101198.88;5102348;28;20203;-73
2021/06/23 06:06:23;;;;;;;9.97;3.57;;;;;;;15.42;65.46;101226.06;5104013;27;20703;-72
2021/06/23 06:08:50;;;;;;;6.20;3.20;;;;;;;15.37;65.54;101263.00;5103622;27;20254;-73
2021/06/23 06:11:16;;;;;;;5.47;3.20;;;;;;;15.40;65.23;101259.44;5103222;28;20731;-73
2021/06/23 06:13:43;;;;;;;2.93;2.73;;;;;;;15.38;65.89;101216.50;5103706;28;20234;-72
2021/06/23 06:16:10;;;;;;;4.53;2.90;;;;;;;15.37;66.00;101222.69;5103318;28;20222;-73
2021/06/23 06:18:37;;;;;;;8.00;3.40;;;;;;;15.40;65.77;101238.38;5102782;28;20223;-73
2021/06/23 06:21:04;;;;;;;7.37;3.17;;;;;;;15.45;65.32;101255.78;5103999;28;20228;-73
2021/06/23 06:23:30;;;;;;;9.93;3.13;;;;;;;15.46;64.76;101282.94;5102643;28;20210;-72
2021/06/23 06:25:57;;;;;;;3.30;2.77;;;;;;;15.51;64.51;101306.53;5103189;28;20234;-72
2021/06/23 06:28:23;;;;;;;4.77;2.90;;;;;;;15.56;64.51;101305.53;5103895;28;20202;-73
2021/06/23 06:30:50;;;;;;;5.73;2.93;;;;;;;15.63;64.41;101299.16;5103307;28;20825;-73
2021/06/23 06:33:18;;;;;;;8.13;3.30;;;;;;;15.68;64.94;101286.78;5102737;28;20465;-73
2021/06/23 06:35:44;;;;;;;6.93;3.33;;;;;;;15.71;64.18;101308.66;5102985;28;20234;-73
2021/06/23 06:38:10;;;;;;;8.07;3.30;;;;;;;15.78;64.36;101305.84;5105417;27;20874;-73
2021/06/23 06:40:37;;;;;;;6.17;3.27;;;;;;;15.80;64.23;101287.38;5107560;27;20223;-72
2021/06/23 06:43:03;;;;;;;8.13;3.00;;;;;;;15.73;65.15;101265.59;5106512;27;20440;-73
2021/06/23 06:45:30;;;;;;;6.60;3.40;;;;;;;15.81;64.57;101286.47;5107231;27;20280;-73
2021/06/23 06:47:56;;;;;;;10.53;3.63;;;;;;;15.79;64.52;101296.16;5106976;27;20199;-73
2021/06/23 06:50:24;;;;;;;8.93;3.63;;;;;;;15.80;65.86;101247.91;5107462;27;20492;-74
2021/06/23 06:52:51;;;;;;;10.00;3.20;;;;;;;15.78;65.63;101236.53;5106844;27;20276;-74
2021/06/23 06:55:21;;;;;;;4.13;3.20;;;;;;;15.74;65.26;101261.19;5106781;27;20303;-73
2021/06/23 06:57:48;;;;;;;5.67;3.53;;;;;;;15.72;64.77;101291.94;5106952;27;20208;-73
2021/06/23 07:00:15;;;;;;;6.10;3.43;;;;;;;15.68;65.22;101265.72;5106604;27;20292;-72
2021/06/23 07:02:42;;;;;;;7.13;3.40;;;;;;;15.66;65.65;101262.25;5106385;27;21001;-73
2021/06/23 07:05:09;;;;;;;6.00;3.07;;;;;;;15.69;64.70;101291.09;5107362;27;20284;-72
2021/06/23 07:07:37;;;;;;;6.57;3.47;;;;;;;15.62;64.81;101288.72;5106921;27;20199;-74
2021/06/23 07:10:04;;;;;;;11.03;3.30;;;;;;;15.58;64.69;101308.09;5107164;27;20203;-72
2021/06/23 07:12:30;;;;;;;5.40;2.70;;;;;;;15.57;65.39;101259.84;5106154;27;20204;-72
2021/06/23 07:14:57;;;;;;;7.90;2.83;;;;;;;15.59;64.79;101289.63;5106976;27;20231;-73
2021/06/23 07:17:23;;;;;;;9.83;3.67;;;;;;;15.65;65.86;101223.66;5107270;27;20248;-72
2021/06/23 07:19:49;;;;;;;11.37;3.40;;;;;;;15.73;65.35;101278.78;5107414;27;20208;-73
2021/06/23 07:22:16;;;;;;;7.53;3.67;;;;;;;15.85;68.45;101169.63;5106201;27;20199;-72
2021/06/23 07:24:45;;;;;;;7.67;3.20;;;;;;;15.99;64.77;101266.66;5106324;27;20566;-73
2021/06/23 07:27:11;;;;;;;7.13;3.60;;;;;;;16.15;64.21;101323.25;5106660;27;20209;-73
2021/06/23 07:29:38;;;;;;;5.53;3.03;;;;;;;16.28;63.82;101324.66;5107264;27;20277;-72
2021/06/23 07:32:07;;;;;;;7.40;2.77;;;;;;;16.41;62.89;101356.81;5107093;27;20204;-75
2021/06/23 07:37:15;;;;;;;6.03;2.70;;;;;;;16.40;62.89;101373.50;5082792;27;20207;-73
2021/06/23 07:39:42;;;;;;;8.93;3.10;;;;;;;16.39;61.27;101437.66;5106264;27;20211;-73
2021/06/23 07:42:13;;;;;;;5.60;2.60;;;;;;;16.35;61.52;101443.03;5106364;27;20278;-72
2021/06/23 07:44:42;;;;;;;6.17;3.10;;;;;;;16.24;62.61;101393.28;5106773;27;20237;-72
2021/06/23 07:47:11;;;;;;;5.33;2.30;;;;;;;16.27;61.44;101424.78;5106052;27;20641;-73
2021/06/23 07:49:40;;;;;;;7.20;2.40;;;;;;;16.30;61.20;101440.53;5105737;27;20562;-75
2021/06/23 07:52:10;;;;;;;6.20;3.40;;;;;;;16.15;60.36;101527.88;5105714;27;20203;-73
2021/06/23 07:54:46;;;;;;;6.87;3.40;;;;;;;16.12;60.61;101470.88;5106416;27;20231;-72
2021/06/23 08:10:58;;;;;;;6.90;2.50;;;;;;;16.39;60.42;101482.47;5087801;27;20199;-73
2021/06/23 08:13:26;;;;;;;4.57;2.20;;;;;;;16.37;59.48;101534.34;5105376;27;20210;-74
2021/06/23 08:15:52;;;;;;;6.33;2.63;;;;;;;16.39;60.00;101519.38;5105593;27;20287;-74
2021/06/23 08:18:20;;;;;;;7.77;3.23;;;;;;;16.39;60.18;101484.22;5105243;27;20211;-72
2021/06/23 08:20:48;;;;;;;5.07;2.47;;;;;;;16.43;60.30;101477.94;5108804;28;20670;-73
2021/06/23 08:23:14;;;;;;;5.83;2.63;;;;;;;16.40;61.46;101423.56;5110014;27;20208;-73
2021/06/23 08:25:41;;;;;;;5.33;2.10;;;;;;;16.47;61.05;101437.44;5108140;27;20220;-74
2021/06/23 08:28:08;;;;;;;6.63;2.20;;;;;;;16.59;61.68;101400.22;5112552;27;20233;-73
2021/06/23 08:30:36;;;;;;;8.57;2.33;;;;;;;16.77;61.16;101421.66;5108268;27;20299;-73
2021/06/23 08:33:03;;;;;;;8.07;2.50;;;;;;;16.90;60.10;101482.88;5105112;27;20717;-73
2021/06/23 08:35:29;;;;;;;5.93;2.40;;;;;;;16.90;59.97;101504.81;5105279;27;20229;-72
2021/06/23 08:37:56;;;;;;;9.60;2.80;;;;;;;16.81;59.19;101542.00;5104422;27;20204;-73
2021/06/23 08:40:24;;;;;;;5.87;2.20;;;;;;;16.89;59.51;101526.84;5105717;27;20205;-73
2021/06/23 08:42:50;;;;;;;5.87;3.07;;;;;;;17.03;60.76;101474.56;5104507;27;20212;-73
2021/06/23 08:45:17;;;;;;;4.57;2.13;;;;;;;17.23;59.63;101495.06;5104827;27;20269;-74
2021/06/23 08:47:46;;;;;;;5.30;2.30;;;;;;;17.38;59.60;101492.88;5104839;27;20323;-73
2021/06/23 08:50:14;;;;;;;11.85;3.63;;;;;;;17.43;58.73;101530.56;5104252;27;20429;-73
2021/06/23 08:52:41;;;;;;;6.43;2.90;;;;;;;17.33;59.04;101513.28;5105043;27;20205;-72
2021/06/23 08:55:08;;;;;;;4.67;3.00;;;;;;;17.42;61.50;101417.97;5104364;27;20244;-73
2021/06/23 08:57:34;;;;;;;6.50;2.90;;;;;;;17.58;59.75;101479.94;5104849;27;20732;-72
2021/06/23 09:00:01;;;;;;;3.73;2.47;;;;;;;17.67;59.68;101491.97;5104295;27;20208;-75
2021/06/23 09:02:30;;;;;;;5.80;2.70;;;;;;;17.72;59.72;101484.78;5103824;27;20213;-75
2021/06/23 09:05:00;;;;;;;7.50;3.00;;;;;;;17.82;58.61;101531.13;5104188;27;20202;-73
2021/06/23 09:07:37;;;;;;;6.77;3.37;;;;;;;17.91;58.32;101552.91;5104132;27;20778;-73
2021/06/23 09:10:06;;;;;;;4.43;3.07;;;;;;;17.99;59.67;101468.97;5104269;27;20746;-73
2021/06/23 09:12:32;;;;;;;5.07;2.80;;;;;;;18.15;59.10;101501.88;5104227;27;20206;-73
2021/06/23 09:15:00;;;;;;;6.43;3.03;;;;;;;18.21;57.48;101580.13;5103906;27;20222;-72
2021/06/23 09:17:27;;;;;;;4.07;2.90;;;;;;;18.01;57.06;101628.31;5103976;27;20205;-71
2021/06/23 09:19:55;;;;;;;10.97;3.57;;;;;;;18.29;57.77;101578.06;5104061;27;20232;-71
2021/06/23 09:22:40;;;;;;;9.17;3.20;;;;;;;18.46;56.19;101635.69;5103943;27;20206;-72
2021/06/23 09:25:23;;;;;;;5.43;2.97;;;;;;;18.54;55.58;101675.97;5106717;27;20300;-72
2021/06/23 09:27:52;;;;;;;6.93;2.80;;;;;;;18.58;56.31;101643.22;5103074;27;20204;-73
2021/06/23 09:30:31;;;;;;;5.57;2.57;;;;;;;18.72;55.96;101640.13;5104970;27;20262;-73
2021/06/23 09:33:13;;;;;;;4.67;2.80;;;;;;;18.83;56.31;101627.44;5101457;28;20747;-73
2021/06/23 09:35:41;;;;;;;7.13;2.87;;;;;;;18.91;56.58;101618.34;5104242;27;20309;-74
2021/06/23 09:38:42;;;;;;;4.33;2.53;;;;;;;18.97;56.73;101581.97;5104007;27;20621;-74
2021/06/23 09:41:21;;;;;;;6.87;3.17;;;;;;;18.89;55.54;101655.47;5104392;27;20583;-72
2021/06/23 09:43:51;;;;;;;7.97;3.40;;;;;;;17.71;56.16;101674.97;5103337;27;20210;-73
2021/06/23 09:46:20;;;;;;;6.80;3.50;;;;;;;17.55;58.87;101517.00;5104171;27;20230;-73
2021/06/23 09:48:48;;;;;;;7.60;3.57;;;;;;;18.00;58.49;101511.22;5104306;28;20208;-74
2021/06/23 09:51:18;;;;;;;4.47;3.10;;;;;;;18.29;58.44;101546.34;5104068;27;20278;-72
2021/06/23 09:53:47;;;;;;;9.30;3.30;;;;;;;18.51;56.31;101607.31;5103777;27;20201;-73
2021/06/23 09:56:27;;;;;;;6.93;3.73;;;;;;;18.60;55.91;101675.78;5103778;28;20232;-74
2021/06/23 09:58:55;;;;;;;6.27;3.40;;;;;;;18.35;55.73;101678.31;5103631;28;21321;-73
2021/06/23 10:01:22;;;;;;;5.77;3.23;;;;;;;18.32;56.41;101633.50;5103336;28;20212;-75
2021/06/23 10:04:00;;;;;;;6.80;3.73;;;;;;;18.53;57.32;101576.41;5103255;27;20671;-74
2021/06/23 10:06:28;;;;;;;6.73;3.80;;;;;;;18.45;56.09;101639.25;5103355;28;20228;-75
2021/06/23 10:09:18;;;;;;;6.83;3.77;;;;;;;18.23;56.66;101589.72;5103528;28;20214;-73
2021/06/23 10:11:45;;;;;;;8.47;4.03;;;;;;;17.99;57.05;101582.59;5103252;28;20212;-73
2021/06/23 10:14:11;;;;;;;5.93;4.17;;;;;;;17.90;58.22;101509.78;5103264;27;20742;-74
2021/06/23 10:16:38;;;;;;;8.93;3.70;;;;;;;18.01;58.39;101525.28;5103278;28;20783;-74
2021/06/23 10:19:06;;;;;;;4.43;2.83;;;;;;;18.53;58.49;101525.28;5103845;28;20219;-73
2021/06/23 10:21:33;;;;;;;6.27;3.57;;;;;;;18.93;58.37;101515.97;5103785;28;20232;-74
2021/06/23 10:24:00;;;;;;;6.63;3.73;;;;;;;19.17;57.41;101568.00;5103353;28;20207;-75
2021/06/23 10:26:32;;;;;;;4.73;3.03;;;;;;;19.35;56.35;101616.78;5103434;28;20238;-74
2021/06/23 10:28:59;;;;;;;6.47;3.77;;;;;;;19.61;55.03;101667.91;5102923;28;20217;-74
2021/06/23 10:31:28;;;;;;;7.90;3.50;;;;;;;19.78;54.38;101696.44;5103613;28;20260;-74
2021/06/23 10:33:55;;;;;;;4.93;3.47;;;;;;;19.94;55.10;101696.72;5103142;28;21045;-73
2021/06/23 10:36:24;;;;;;;5.53;3.63;;;;;;;20.10;54.35;101713.81;5103386;28;20781;-73
2021/06/23 10:38:52;;;;;;;8.43;3.50;;;;;;;20.29;53.72;101711.28;5103060;28;20252;-74
2021/06/23 10:41:19;;;;;;;6.30;4.33;;;;;;;20.46;52.48;101792.84;5103589;28;20206;-74
2021/06/23 10:44:18;;;;;;;6.63;4.37;;;;;;;20.62;52.09;101786.06;5101127;28;20215;-74
2021/06/23 10:46:45;;;;;;;5.03;3.87;;;;;;;20.77;52.32;101775.75;5102707;28;20226;-73
2021/06/23 10:49:15;;;;;;;6.33;4.30;;;;;;;20.96;51.96;101797.09;5103178;28;20210;-74
2021/06/23 10:51:42;;;;;;;5.93;3.50;;;;;;;21.20;51.33;101803.19;5103674;28;20209;-73
2021/06/23 10:54:39;;;;;;;5.13;3.57;;;;;;;21.32;50.89;101839.84;5101424;28;20210;-74
2021/06/23 10:57:25;;;;;;;5.93;3.97;;;;;;;21.46;50.55;101839.31;5101394;28;20253;-74
2021/06/23 10:59:54;;;;;;;7.57;3.90;;;;;;;21.59;50.04;101852.97;5102975;28;20214;-73
2021/06/23 11:02:29;;;;;;;5.53;3.17;;;;;;;21.63;48.96;101923.66;5102707;28;20202;-73
2021/06/23 11:05:10;;;;;;;6.73;3.77;;;;;;;21.60;50.93;101857.31;5102683;28;20267;-73
2021/06/23 11:07:38;;;;;;;7.13;3.73;;;;;;;21.42;50.39;101858.94;5102456;28;20209;-73
2021/06/23 11:10:30;;;;;;;8.17;3.70;;;;;;;21.52;50.74;101870.06;5102154;28;20753;-73
2021/06/23 11:12:58;;;;;;;6.27;3.63;;;;;;;21.66;50.92;101803.06;5102645;28;20210;-73
2021/06/23 11:15:35;;;;;;;6.63;3.97;;;;;;;21.91;48.78;101955.25;5102131;28;20242;-74
2021/06/23 11:18:24;;;;;;;6.77;4.23;;;;;;;21.79;48.81;101963.75;5102440;28;20234;-73
2021/06/23 11:20:53;;;;;;;6.27;3.87;;;;;;;21.94;49.21;101914.34;5102269;28;20670;-75
2021/06/23 11:23:43;;;;;;;6.20;4.40;;;;;;;21.77;47.91;101958.47;5102640;27;20206;-74
2021/06/23 11:26:30;;;;;;;4.60;3.50;;;;;;;21.50;49.22;101919.75;5106169;27;20226;-73
2021/06/23 11:29:18;;;;;;;6.33;3.83;;;;;;;21.80;51.22;101798.88;5106292;27;20229;-73
2021/06/23 11:31:49;;;;;;;7.00;3.73;;;;;;;21.98;51.95;101729.81;5105392;27;20207;-74
2021/06/23 11:34:40;;;;;;;7.03;4.63;;;;;;;22.38;48.93;101879.66;5105501;27;20204;-73
2021/06/23 11:37:08;;;;;;;8.93;4.40;;;;;;;22.41;49.03;101925.59;5106119;27;20727;-72
2021/06/23 11:39:35;;;;;;;5.73;5.13;;;;;;;22.39;49.27;101884.03;5106599;27;20663;-73
2021/06/23 11:42:01;;;;;;;6.57;4.47;;;;;;;22.48;48.90;101898.75;5105070;27;20212;-73
2021/06/23 11:44:29;;;;;;;9.80;5.00;;;;;;;22.59;47.89;101952.31;5106087;27;20272;-72
2021/06/23 11:47:00;;;;;;;9.40;4.77;;;;;;;22.62;48.17;101952.19;5106234;27;20219;-73
2021/06/23 11:49:27;;;;;;;7.10;4.90;;;;;;;22.64;48.43;101930.84;5106379;27;20219;-73